sensor_id;sensor_type;location;lat;lon;timestamp;temperature;humidity
19544;DHT22;9917;51.256;7.152;2023-03-13T00:01:36;10.60;99.90
19544;DHT22;9917;51.256;7.152;2023-03-13T00:04:04;10.50;99.90
19544;DHT22;9917;51.256;7.152;2023-03-13T00:06:31;10.60;99.90
19544;DHT22;9917;51.256;7.152;2023-03-13T00:08:58;11.80;99.90
19544;DHT22;9917;51.256;7.152;2023-03-13T00:11:23;10.60;99.90
19544;DHT22;9917;51.256;7.152;2023-03-13T00:13:53;10.60;99.90
19544;DHT22;9917;51.256;7.152;2023-03-13T00:16:19;10.60;99.90
19544;DHT22;9917;51.256;7.152;2023-03-13T00:18:45;10.60;99.90
19544;DHT22;9917;51.256;7.152;2023-03-13T00:21:12;10.60;99.90
19544;DHT22;9917;51.256;7.152;2023-03-13T00:23:38;10.70;99.90
19544;DHT22;9917;51.256;7.152;2023-03-13T00:26:05;10.60;99.90
19544;DHT22;9917;51.256;7.152;2023-03-13T00:28:32;10.70;99.90
19544;DHT22;9917;51.256;7.152;2023-03-13T00:31:03;10.60;99.90
19544;DHT22;9917;51.256;7.152;2023-03-13T00:33:30;10.60;99.90
19544;DHT22;9917;51.256;7.152;2023-03-13T00:36:00;10.70;99.90
19544;DHT22;9917;51.256;7.152;2023-03-13T00:38:28;10.70;99.90
19544;DHT22;9917;51.256;7.152;2023-03-13T00:41:00;10.70;99.90
19544;DHT22;9917;51.256;7.152;2023-03-13T00:43:26;10.70;99.90
19544;DHT22;9917;51.256;7.152;2023-03-13T00:45:52;10.60;99.90
19544;DHT22;9917;51.256;7.152;2023-03-13T00:48:18;10.50;99.90
19544;DHT22;9917;51.256;7.152;2023-03-13T00:50:43;10.40;99.90
19544;DHT22;9917;51.256;7.152;2023-03-13T00:53:09;10.30;99.90
19544;DHT22;9917;51.256;7.152;2023-03-13T00:55:36;10.40;99.90
19544;DHT22;9917;51.256;7.152;2023-03-13T00:58:04;10.40;99.90
19544;DHT22;9917;51.256;7.152;2023-03-13T01:00:29;10.30;99.90
19544;DHT22;9917;51.256;7.152;2023-03-13T01:02:55;10.10;99.90
19544;DHT22;9917;51.256;7.152;2023-03-13T01:05:21;10.10;99.90
19544;DHT22;9917;51.256;7.152;2023-03-13T01:07:47;10.40;99.90
19544;DHT22;9917;51.256;7.152;2023-03-13T01:10:12;10.00;99.90
19544;DHT22;9917;51.256;7.152;2023-03-13T01:12:39;10.00;99.90
19544;DHT22;9917;51.256;7.152;2023-03-13T01:15:06;10.10;99.90
19544;DHT22;9917;51.256;7.152;2023-03-13T01:17:32;10.10;99.90
19544;DHT22;9917;51.256;7.152;2023-03-13T01:19:58;10.00;99.90
19544;DHT22;9917;51.256;7.152;2023-03-13T01:22:23;10.00;99.90
19544;DHT22;9917;51.256;7.152;2023-03-13T01:24:50;10.00;99.90
19544;DHT22;9917;51.256;7.152;2023-03-13T01:27:16;10.00;99.90
19544;DHT22;9917;51.256;7.152;2023-03-13T01:29:43;10.00;99.90
19544;DHT22;9917;51.256;7.152;2023-03-13T01:32:09;9.90;99.90
19544;DHT22;9917;51.256;7.152;2023-03-13T01:34:35;9.90;99.90
19544;DHT22;9917;51.256;7.152;2023-03-13T01:37:00;9.80;99.90
19544;DHT22;9917;51.256;7.152;2023-03-13T01:39:26;9.80;99.90
19544;DHT22;9917;51.256;7.152;2023-03-13T01:41:52;9.70;99.90
19544;DHT22;9917;51.256;7.152;2023-03-13T01:44:21;9.80;99.90
19544;DHT22;9917;51.256;7.152;2023-03-13T01:46:48;9.70;99.90
19544;DHT22;9917;51.256;7.152;2023-03-13T01:49:17;9.70;99.90
19544;DHT22;9917;51.256;7.152;2023-03-13T01:51:45;9.70;99.90
19544;DHT22;9917;51.256;7.152;2023-03-13T01:54:17;9.80;99.90
19544;DHT22;9917;51.256;7.152;2023-03-13T01:56:48;9.60;99.90
19544;DHT22;9917;51.256;7.152;2023-03-13T01:59:18;9.70;99.90
19544;DHT22;9917;51.256;7.152;2023-03-13T02:01:48;9.70;99.90
19544;DHT22;9917;51.256;7.152;2023-03-13T02:04:15;9.70;99.90
19544;DHT22;9917;51.256;7.152;2023-03-13T02:06:44;9.70;99.90
19544;DHT22;9917;51.256;7.152;2023-03-13T02:09:16;9.70;99.90
19544;DHT22;9917;51.256;7.152;2023-03-13T02:11:47;9.60;99.90
19544;DHT22;9917;51.256;7.152;2023-03-13T02:14:15;9.60;99.90
19544;DHT22;9917;51.256;7.152;2023-03-13T02:16:42;9.50;99.90
19544;DHT22;9917;51.256;7.152;2023-03-13T02:19:16;9.50;99.90
19544;DHT22;9917;51.256;7.152;2023-03-13T02:21:48;9.50;99.90
19544;DHT22;9917;51.256;7.152;2023-03-13T02:24:20;9.60;99.90
19544;DHT22;9917;51.256;7.152;2023-03-13T02:26:51;9.60;99.90
19544;DHT22;9917;51.256;7.152;2023-03-13T02:29:16;9.50;99.90
19544;DHT22;9917;51.256;7.152;2023-03-13T02:31:43;9.70;99.90
19544;DHT22;9917;51.256;7.152;2023-03-13T02:34:09;9.60;99.90
19544;DHT22;9917;51.256;7.152;2023-03-13T02:36:35;9.50;99.90
19544;DHT22;9917;51.256;7.152;2023-03-13T02:39:03;9.50;99.90
19544;DHT22;9917;51.256;7.152;2023-03-13T02:41:31;9.40;99.90
19544;DHT22;9917;51.256;7.152;2023-03-13T02:43:59;9.40;99.90
19544;DHT22;9917;51.256;7.152;2023-03-13T02:46:25;9.40;99.90
19544;DHT22;9917;51.256;7.152;2023-03-13T02:48:52;9.40;99.90
19544;DHT22;9917;51.256;7.152;2023-03-13T02:51:24;9.40;99.90
19544;DHT22;9917;51.256;7.152;2023-03-13T02:53:54;9.40;99.90
19544;DHT22;9917;51.256;7.152;2023-03-13T02:56:24;9.40;99.90
19544;DHT22;9917;51.256;7.152;2023-03-13T02:58:50;9.40;99.90
19544;DHT22;9917;51.256;7.152;2023-03-13T03:01:17;9.40;99.90
19544;DHT22;9917;51.256;7.152;2023-03-13T03:03:43;9.40;99.90
19544;DHT22;9917;51.256;7.152;2023-03-13T03:06:08;9.50;99.90
19544;DHT22;9917;51.256;7.152;2023-03-13T03:08:34;9.50;99.90
19544;DHT22;9917;51.256;7.152;2023-03-13T03:11:01;9.50;99.90
19544;DHT22;9917;51.256;7.152;2023-03-13T03:13:28;9.50;99.90
19544;DHT22;9917;51.256;7.152;2023-03-13T03:15:53;9.60;99.90
19544;DHT22;9917;51.256;7.152;2023-03-13T03:18:20;9.60;99.90
19544;DHT22;9917;51.256;7.152;2023-03-13T03:23:12;9.60;99.90
19544;DHT22;9917;51.256;7.152;2023-03-13T03:25:38;9.70;99.90
19544;DHT22;9917;51.256;7.152;2023-03-13T03:28:04;9.60;99.90
19544;DHT22;9917;51.256;7.152;2023-03-13T03:30:29;9.70;99.90
19544;DHT22;9917;51.256;7.152;2023-03-13T03:32:55;9.70;99.90
19544;DHT22;9917;51.256;7.152;2023-03-13T03:35:22;9.60;99.90
19544;DHT22;9917;51.256;7.152;2023-03-13T03:37:48;9.70;99.90
19544;DHT22;9917;51.256;7.152;2023-03-13T03:40:14;9.70;99.90
19544;DHT22;9917;51.256;7.152;2023-03-13T03:42:40;9.70;99.90
19544;DHT22;9917;51.256;7.152;2023-03-13T03:45:06;9.70;99.90
19544;DHT22;9917;51.256;7.152;2023-03-13T03:47:33;9.70;99.90
19544;DHT22;9917;51.256;7.152;2023-03-13T03:49:58;9.70;99.90
19544;DHT22;9917;51.256;7.152;2023-03-13T03:52:25;9.90;99.90
19544;DHT22;9917;51.256;7.152;2023-03-13T03:54:51;9.90;99.90
19544;DHT22;9917;51.256;7.152;2023-03-13T03:57:17;9.80;99.90
19544;DHT22;9917;51.256;7.152;2023-03-13T03:59:43;9.90;99.90
19544;DHT22;9917;51.256;7.152;2023-03-13T04:02:08;9.90;99.90
19544;DHT22;9917;51.256;7.152;2023-03-13T04:04:34;9.90;99.90
19544;DHT22;9917;51.256;7.152;2023-03-13T04:07:00;10.00;99.90
19544;DHT22;9917;51.256;7.152;2023-03-13T04:09:27;10.00;99.90
19544;DHT22;9917;51.256;7.152;2023-03-13T04:11:53;10.00;99.90
19544;DHT22;9917;51.256;7.152;2023-03-13T04:14:19;10.00;99.90
19544;DHT22;9917;51.256;7.152;2023-03-13T04:16:44;10.10;99.90
19544;DHT22;9917;51.256;7.152;2023-03-13T04:19:10;10.10;99.90
19544;DHT22;9917;51.256;7.152;2023-03-13T04:24:02;10.10;99.90
19544;DHT22;9917;51.256;7.152;2023-03-13T04:26:29;10.10;99.90
19544;DHT22;9917;51.256;7.152;2023-03-13T04:28:55;10.40;99.90
19544;DHT22;9917;51.256;7.152;2023-03-13T04:31:20;10.20;99.90
19544;DHT22;9917;51.256;7.152;2023-03-13T04:33:46;10.20;99.90
19544;DHT22;9917;51.256;7.152;2023-03-13T04:36:12;10.20;99.90
19544;DHT22;9917;51.256;7.152;2023-03-13T04:38:37;10.20;99.90
19544;DHT22;9917;51.256;7.152;2023-03-13T04:41:03;10.40;99.90
19544;DHT22;9917;51.256;7.152;2023-03-13T04:43:30;10.30;99.90
19544;DHT22;9917;51.256;7.152;2023-03-13T04:45:56;10.30;99.90
19544;DHT22;9917;51.256;7.152;2023-03-13T04:48:22;10.30;99.90
19544;DHT22;9917;51.256;7.152;2023-03-13T04:50:47;10.40;99.90
19544;DHT22;9917;51.256;7.152;2023-03-13T04:53:13;10.40;99.90
19544;DHT22;9917;51.256;7.152;2023-03-13T04:55:39;10.40;99.90
19544;DHT22;9917;51.256;7.152;2023-03-13T05:00:33;10.50;99.90
19544;DHT22;9917;51.256;7.152;2023-03-13T05:02:58;10.50;99.90
19544;DHT22;9917;51.256;7.152;2023-03-13T05:05:24;10.60;99.90
19544;DHT22;9917;51.256;7.152;2023-03-13T05:07:50;10.60;99.90
19544;DHT22;9917;51.256;7.152;2023-03-13T05:10:16;10.50;99.90
19544;DHT22;9917;51.256;7.152;2023-03-13T05:12:41;10.60;99.90
19544;DHT22;9917;51.256;7.152;2023-03-13T05:15:08;10.60;99.90
19544;DHT22;9917;51.256;7.152;2023-03-13T05:17:35;10.60;99.90
19544;DHT22;9917;51.256;7.152;2023-03-13T05:20:01;10.60;99.90
19544;DHT22;9917;51.256;7.152;2023-03-13T05:22:26;10.70;99.90
19544;DHT22;9917;51.256;7.152;2023-03-13T05:24:52;10.70;99.90
19544;DHT22;9917;51.256;7.152;2023-03-13T05:27:18;10.80;99.90
19544;DHT22;9917;51.256;7.152;2023-03-13T05:29:43;10.80;99.90
19544;DHT22;9917;51.256;7.152;2023-03-13T05:32:09;10.80;99.90
19544;DHT22;9917;51.256;7.152;2023-03-13T05:34:36;10.90;99.90
19544;DHT22;9917;51.256;7.152;2023-03-13T05:37:02;10.90;99.90
19544;DHT22;9917;51.256;7.152;2023-03-13T05:39:28;10.90;99.90
19544;DHT22;9917;51.256;7.152;2023-03-13T05:41:54;10.90;99.90
19544;DHT22;9917;51.256;7.152;2023-03-13T05:44:19;10.90;99.90
19544;DHT22;9917;51.256;7.152;2023-03-13T05:46:45;11.00;99.90
19544;DHT22;9917;51.256;7.152;2023-03-13T05:49:11;11.00;99.90
19544;DHT22;9917;51.256;7.152;2023-03-13T05:51:38;11.10;99.90
19544;DHT22;9917;51.256;7.152;2023-03-13T05:54:04;11.10;99.90
19544;DHT22;9917;51.256;7.152;2023-03-13T05:56:30;10.50;99.90
19544;DHT22;9917;51.256;7.152;2023-03-13T05:58:55;11.20;99.90
19544;DHT22;9917;51.256;7.152;2023-03-13T06:01:23;11.20;99.90
19544;DHT22;9917;51.256;7.152;2023-03-13T06:03:48;11.30;99.90
19544;DHT22;9917;51.256;7.152;2023-03-13T06:06:14;11.30;99.90
19544;DHT22;9917;51.256;7.152;2023-03-13T06:08:41;11.30;99.90
19544;DHT22;9917;51.256;7.152;2023-03-13T06:11:07;11.30;99.90
19544;DHT22;9917;51.256;7.152;2023-03-13T06:13:32;11.40;99.90
19544;DHT22;9917;51.256;7.152;2023-03-13T06:15:58;11.50;99.90
19544;DHT22;9917;51.256;7.152;2023-03-13T06:18:25;11.50;99.90
19544;DHT22;9917;51.256;7.152;2023-03-13T06:20:55;11.50;99.90
19544;DHT22;9917;51.256;7.152;2023-03-13T06:23:21;11.50;99.90
19544;DHT22;9917;51.256;7.152;2023-03-13T06:25:48;11.50;99.90
19544;DHT22;9917;51.256;7.152;2023-03-13T06:28:14;11.60;99.90
19544;DHT22;9917;51.256;7.152;2023-03-13T06:30:40;11.60;99.90
19544;DHT22;9917;51.256;7.152;2023-03-13T06:33:06;11.50;99.90
19544;DHT22;9917;51.256;7.152;2023-03-13T06:35:31;10.30;99.90
19544;DHT22;9917;51.256;7.152;2023-03-13T06:37:57;11.60;99.90
19544;DHT22;9917;51.256;7.152;2023-03-13T06:40:23;11.70;99.90
19544;DHT22;9917;51.256;7.152;2023-03-13T06:42:50;11.70;99.90
19544;DHT22;9917;51.256;7.152;2023-03-13T06:45:16;11.80;99.90
19544;DHT22;9917;51.256;7.152;2023-03-13T06:47:41;11.90;99.90
19544;DHT22;9917;51.256;7.152;2023-03-13T06:50:08;11.90;99.90
19544;DHT22;9917;51.256;7.152;2023-03-13T06:52:34;12.00;99.90
19544;DHT22;9917;51.256;7.152;2023-03-13T06:54:59;12.00;99.90
19544;DHT22;9917;51.256;7.152;2023-03-13T06:57:25;12.10;99.90
19544;DHT22;9917;51.256;7.152;2023-03-13T06:59:52;12.10;99.90
19544;DHT22;9917;51.256;7.152;2023-03-13T07:02:18;12.10;99.90
19544;DHT22;9917;51.256;7.152;2023-03-13T07:04:44;12.10;99.90
19544;DHT22;9917;51.256;7.152;2023-03-13T07:07:09;12.10;99.90
19544;DHT22;9917;51.256;7.152;2023-03-13T07:09:35;12.10;99.90
19544;DHT22;9917;51.256;7.152;2023-03-13T07:12:01;12.10;99.90
19544;DHT22;9917;51.256;7.152;2023-03-13T07:14:27;12.20;99.90
19544;DHT22;9917;51.256;7.152;2023-03-13T07:16:54;12.20;99.90
19544;DHT22;9917;51.256;7.152;2023-03-13T07:19:20;12.30;99.90
19544;DHT22;9917;51.256;7.152;2023-03-13T07:21:45;12.40;99.90
19544;DHT22;9917;51.256;7.152;2023-03-13T07:24:11;12.40;99.90
19544;DHT22;9917;51.256;7.152;2023-03-13T07:26:37;12.60;99.90
19544;DHT22;9917;51.256;7.152;2023-03-13T07:29:03;12.60;99.90
19544;DHT22;9917;51.256;7.152;2023-03-13T07:31:29;12.70;99.90
19544;DHT22;9917;51.256;7.152;2023-03-13T07:33:56;12.70;99.90
19544;DHT22;9917;51.256;7.152;2023-03-13T07:36:22;12.80;99.90
19544;DHT22;9917;51.256;7.152;2023-03-13T07:38:47;12.80;99.90
19544;DHT22;9917;51.256;7.152;2023-03-13T07:41:13;12.90;99.90
19544;DHT22;9917;51.256;7.152;2023-03-13T07:43:39;12.90;99.90
19544;DHT22;9917;51.256;7.152;2023-03-13T07:46:09;12.90;99.90
19544;DHT22;9917;51.256;7.152;2023-03-13T07:48:36;13.00;99.90
19544;DHT22;9917;51.256;7.152;2023-03-13T07:51:05;13.00;99.90
19544;DHT22;9917;51.256;7.152;2023-03-13T07:53:31;13.20;99.90
19544;DHT22;9917;51.256;7.152;2023-03-13T07:55:58;13.30;99.90
19544;DHT22;9917;51.256;7.152;2023-03-13T07:58:26;13.30;99.90
19544;DHT22;9917;51.256;7.152;2023-03-13T08:00:52;13.30;99.90
19544;DHT22;9917;51.256;7.152;2023-03-13T08:03:18;13.40;99.90
19544;DHT22;9917;51.256;7.152;2023-03-13T08:05:48;13.40;99.90
19544;DHT22;9917;51.256;7.152;2023-03-13T08:08:23;13.40;99.90
19544;DHT22;9917;51.256;7.152;2023-03-13T08:10:49;13.50;99.90
19544;DHT22;9917;51.256;7.152;2023-03-13T08:13:15;13.40;99.90
19544;DHT22;9917;51.256;7.152;2023-03-13T08:15:41;13.50;99.90
19544;DHT22;9917;51.256;7.152;2023-03-13T08:18:06;13.50;99.90
19544;DHT22;9917;51.256;7.152;2023-03-13T08:20:32;13.50;99.90
19544;DHT22;9917;51.256;7.152;2023-03-13T08:22:58;13.50;99.90
19544;DHT22;9917;51.256;7.152;2023-03-13T08:25:25;13.50;99.90
19544;DHT22;9917;51.256;7.152;2023-03-13T08:27:51;13.50;99.90
19544;DHT22;9917;51.256;7.152;2023-03-13T08:30:17;13.50;99.90
19544;DHT22;9917;51.256;7.152;2023-03-13T08:32:43;13.40;99.90
19544;DHT22;9917;51.256;7.152;2023-03-13T08:35:09;13.50;99.90
19544;DHT22;9917;51.256;7.152;2023-03-13T08:37:34;13.50;99.90
19544;DHT22;9917;51.256;7.152;2023-03-13T08:40:00;13.60;99.90
19544;DHT22;9917;51.256;7.152;2023-03-13T08:42:27;13.60;99.90
19544;DHT22;9917;51.256;7.152;2023-03-13T08:44:53;13.60;99.90
19544;DHT22;9917;51.256;7.152;2023-03-13T08:47:19;13.60;99.90
19544;DHT22;9917;51.256;7.152;2023-03-13T08:49:46;13.60;99.90
19544;DHT22;9917;51.256;7.152;2023-03-13T08:52:12;13.60;99.90
19544;DHT22;9917;51.256;7.152;2023-03-13T08:54:38;13.70;99.90
19544;DHT22;9917;51.256;7.152;2023-03-13T08:57:05;13.70;99.90
19544;DHT22;9917;51.256;7.152;2023-03-13T08:59:33;13.80;99.90
19544;DHT22;9917;51.256;7.152;2023-03-13T09:01:59;13.80;99.90
19544;DHT22;9917;51.256;7.152;2023-03-13T09:04:25;13.80;99.90
19544;DHT22;9917;51.256;7.152;2023-03-13T09:06:51;13.80;99.90
19544;DHT22;9917;51.256;7.152;2023-03-13T09:11:43;13.60;99.90
19544;DHT22;9917;51.256;7.152;2023-03-13T09:14:09;13.70;99.90
19544;DHT22;9917;51.256;7.152;2023-03-13T09:16:37;13.50;99.90
19544;DHT22;9917;51.256;7.152;2023-03-13T09:19:05;13.70;99.90
19544;DHT22;9917;51.256;7.152;2023-03-13T09:21:32;13.80;99.90
19544;DHT22;9917;51.256;7.152;2023-03-13T09:23:58;14.00;99.90
19544;DHT22;9917;51.256;7.152;2023-03-13T09:26:25;14.10;99.90
19544;DHT22;9917;51.256;7.152;2023-03-13T09:28:51;14.00;99.90
19544;DHT22;9917;51.256;7.152;2023-03-13T09:31:18;14.20;99.90
19544;DHT22;9917;51.256;7.152;2023-03-13T09:33:47;14.30;99.90
19544;DHT22;9917;51.256;7.152;2023-03-13T09:36:13;14.10;99.90
19544;DHT22;9917;51.256;7.152;2023-03-13T09:38:40;13.90;99.90
19544;DHT22;9917;51.256;7.152;2023-03-13T09:41:26;14.30;99.90
19544;DHT22;9917;51.256;7.152;2023-03-13T09:43:59;14.20;99.90
19544;DHT22;9917;51.256;7.152;2023-03-13T09:46:31;14.20;99.90
19544;DHT22;9917;51.256;7.152;2023-03-13T09:49:01;14.30;99.90
19544;DHT22;9917;51.256;7.152;2023-03-13T09:51:29;14.70;99.90
19544;DHT22;9917;51.256;7.152;2023-03-13T09:53:58;14.50;99.90
19544;DHT22;9917;51.256;7.152;2023-03-13T09:56:30;14.60;99.90
19544;DHT22;9917;51.256;7.152;2023-03-13T09:59:03;14.30;99.90
19544;DHT22;9917;51.256;7.152;2023-03-13T10:01:32;14.30;99.90
19544;DHT22;9917;51.256;7.152;2023-03-13T10:04:05;14.20;99.90
19544;DHT22;9917;51.256;7.152;2023-03-13T10:06:34;14.20;99.90
19544;DHT22;9917;51.256;7.152;2023-03-13T10:09:01;14.10;99.90
19544;DHT22;9917;51.256;7.152;2023-03-13T10:11:29;14.00;99.90
19544;DHT22;9917;51.256;7.152;2023-03-13T10:14:01;14.40;99.90
19544;DHT22;9917;51.256;7.152;2023-03-13T10:16:31;14.30;99.90
19544;DHT22;9917;51.256;7.152;2023-03-13T10:18:59;14.50;99.90
19544;DHT22;9917;51.256;7.152;2023-03-13T10:21:35;13.50;99.90
19544;DHT22;9917;51.256;7.152;2023-03-13T10:24:05;15.80;99.90
19544;DHT22;9917;51.256;7.152;2023-03-13T10:26:36;16.00;99.90
19544;DHT22;9917;51.256;7.152;2023-03-13T10:29:23;16.50;99.90
19544;DHT22;9917;51.256;7.152;2023-03-13T10:31:55;18.30;99.90
19544;DHT22;9917;51.256;7.152;2023-03-13T10:34:22;19.40;99.90
19544;DHT22;9917;51.256;7.152;2023-03-13T10:36:54;19.10;99.90
19544;DHT22;9917;51.256;7.152;2023-03-13T10:39:22;18.40;99.90
19544;DHT22;9917;51.256;7.152;2023-03-13T10:41:49;17.80;99.90
19544;DHT22;9917;51.256;7.152;2023-03-13T10:44:17;17.30;99.90
19544;DHT22;9917;51.256;7.152;2023-03-13T10:46:45;16.90;99.90
19544;DHT22;9917;51.256;7.152;2023-03-13T10:49:14;16.90;99.90
19544;DHT22;9917;51.256;7.152;2023-03-13T10:51:46;16.80;99.90
19544;DHT22;9917;51.256;7.152;2023-03-13T10:54:18;16.50;99.90
19544;DHT22;9917;51.256;7.152;2023-03-13T10:56:46;16.10;99.90
19544;DHT22;9917;51.256;7.152;2023-03-13T10:59:22;16.00;99.90
19544;DHT22;9917;51.256;7.152;2023-03-13T11:01:52;16.30;99.90
19544;DHT22;9917;51.256;7.152;2023-03-13T11:04:27;16.40;99.90
19544;DHT22;9917;51.256;7.152;2023-03-13T11:06:58;16.40;99.90
19544;DHT22;9917;51.256;7.152;2023-03-13T11:09:27;15.70;99.90
19544;DHT22;9917;51.256;7.152;2023-03-13T11:11:54;16.30;99.90
19544;DHT22;9917;51.256;7.152;2023-03-13T11:14:22;16.30;99.90
19544;DHT22;9917;51.256;7.152;2023-03-13T11:16:50;16.30;99.90
19544;DHT22;9917;51.256;7.152;2023-03-13T11:19:29;16.10;99.90
19544;DHT22;9917;51.256;7.152;2023-03-13T11:22:11;15.90;99.90
19544;DHT22;9917;51.256;7.152;2023-03-13T11:24:43;15.70;99.90
19544;DHT22;9917;51.256;7.152;2023-03-13T11:27:18;15.80;99.90
19544;DHT22;9917;51.256;7.152;2023-03-13T11:29:54;15.70;99.90
19544;DHT22;9917;51.256;7.152;2023-03-13T11:32:30;15.90;99.90
19544;DHT22;9917;51.256;7.152;2023-03-13T11:35:06;15.90;99.90
19544;DHT22;9917;51.256;7.152;2023-03-13T11:37:37;16.00;99.90
19544;DHT22;9917;51.256;7.152;2023-03-13T11:40:14;16.00;99.90
19544;DHT22;9917;51.256;7.152;2023-03-13T11:42:58;16.10;99.90
19544;DHT22;9917;51.256;7.152;2023-03-13T11:45:48;16.10;99.90
19544;DHT22;9917;51.256;7.152;2023-03-13T11:48:26;16.20;99.90
19544;DHT22;9917;51.256;7.152;2023-03-13T11:50:59;16.10;99.90
19544;DHT22;9917;51.256;7.152;2023-03-13T11:53:39;16.10;99.90
19544;DHT22;9917;51.256;7.152;2023-03-13T11:56:15;16.10;99.90
19544;DHT22;9917;51.256;7.152;2023-03-13T11:59:03;16.10;99.90
19544;DHT22;9917;51.256;7.152;2023-03-13T12:01:36;16.00;99.90
19544;DHT22;9917;51.256;7.152;2023-03-13T12:04:07;15.90;99.90
19544;DHT22;9917;51.256;7.152;2023-03-13T12:06:42;15.80;99.90
19544;DHT22;9917;51.256;7.152;2023-03-13T12:09:13;16.10;99.90
19544;DHT22;9917;51.256;7.152;2023-03-13T12:11:45;16.50;99.90
19544;DHT22;9917;51.256;7.152;2023-03-13T12:14:17;17.00;99.90
19544;DHT22;9917;51.256;7.152;2023-03-13T12:16:49;17.60;99.90
19544;DHT22;9917;51.256;7.152;2023-03-13T12:19:19;19.70;99.90
19544;DHT22;9917;51.256;7.152;2023-03-13T12:21:49;20.80;99.90
19544;DHT22;9917;51.256;7.152;2023-03-13T12:24:21;20.60;99.90
19544;DHT22;9917;51.256;7.152;2023-03-13T12:26:52;20.00;99.90
19544;DHT22;9917;51.256;7.152;2023-03-13T12:29:27;19.40;99.90
19544;DHT22;9917;51.256;7.152;2023-03-13T12:31:58;18.80;99.90
19544;DHT22;9917;51.256;7.152;2023-03-13T12:34:29;18.30;99.90
19544;DHT22;9917;51.256;7.152;2023-03-13T12:37:01;18.10;99.90
19544;DHT22;9917;51.256;7.152;2023-03-13T12:39:33;17.70;99.90
19544;DHT22;9917;51.256;7.152;2023-03-13T12:42:12;17.40;99.90
19544;DHT22;9917;51.256;7.152;2023-03-13T12:44:43;17.20;99.90
19544;DHT22;9917;51.256;7.152;2023-03-13T12:47:15;17.30;99.90
19544;DHT22;9917;51.256;7.152;2023-03-13T12:55:57;17.50;99.90
19544;DHT22;9917;51.256;7.152;2023-03-13T12:58:44;17.10;99.90
19544;DHT22;9917;51.256;7.152;2023-03-13T13:01:15;16.90;99.90
19544;DHT22;9917;51.256;7.152;2023-03-13T13:03:50;17.10;99.90
19544;DHT22;9917;51.256;7.152;2023-03-13T13:06:16;17.00;99.90
19544;DHT22;9917;51.256;7.152;2023-03-13T13:08:45;16.80;99.90
19544;DHT22;9917;51.256;7.152;2023-03-13T13:11:42;16.80;99.90
19544;DHT22;9917;51.256;7.152;2023-03-13T13:17:25;17.20;99.90
19544;DHT22;9917;51.256;7.152;2023-03-13T13:19:54;17.20;99.90
19544;DHT22;9917;51.256;7.152;2023-03-13T13:22:45;17.10;99.90
19544;DHT22;9917;51.256;7.152;2023-03-13T13:25:31;17.00;99.90
19544;DHT22;9917;51.256;7.152;2023-03-13T13:28:22;16.80;99.90
19544;DHT22;9917;51.256;7.152;2023-03-13T13:30:48;16.90;99.90
19544;DHT22;9917;51.256;7.152;2023-03-13T13:33:35;17.20;99.90
19544;DHT22;9917;51.256;7.152;2023-03-13T13:36:26;17.20;99.90
19544;DHT22;9917;51.256;7.152;2023-03-13T13:38:57;17.00;99.90
19544;DHT22;9917;51.256;7.152;2023-03-13T13:41:37;16.90;99.90
19544;DHT22;9917;51.256;7.152;2023-03-13T13:44:31;17.00;99.90
19544;DHT22;9917;51.256;7.152;2023-03-13T13:46:57;16.90;99.90
19544;DHT22;9917;51.256;7.152;2023-03-13T13:49:36;16.80;99.90
19544;DHT22;9917;51.256;7.152;2023-03-13T13:52:31;16.60;99.90
19544;DHT22;9917;51.256;7.152;2023-03-13T13:54:57;16.50;99.90
19544;DHT22;9917;51.256;7.152;2023-03-13T13:57:24;16.60;99.90
19544;DHT22;9917;51.256;7.152;2023-03-13T13:59:52;16.70;99.90
19544;DHT22;9917;51.256;7.152;2023-03-13T14:02:24;16.90;99.90
19544;DHT22;9917;51.256;7.152;2023-03-13T14:05:03;17.00;99.90
19544;DHT22;9917;51.256;7.152;2023-03-13T14:07:46;17.20;99.90
19544;DHT22;9917;51.256;7.152;2023-03-13T14:10:35;17.40;99.90
19544;DHT22;9917;51.256;7.152;2023-03-13T14:13:02;17.20;99.90
19544;DHT22;9917;51.256;7.152;2023-03-13T14:15:35;17.10;99.90
19544;DHT22;9917;51.256;7.152;2023-03-13T14:18:10;17.20;99.90
19544;DHT22;9917;51.256;7.152;2023-03-13T14:20:38;17.20;99.90
19544;DHT22;9917;51.256;7.152;2023-03-13T14:23:05;17.20;99.90
19544;DHT22;9917;51.256;7.152;2023-03-13T14:25:44;17.20;99.90
19544;DHT22;9917;51.256;7.152;2023-03-13T14:28:19;17.00;99.90
19544;DHT22;9917;51.256;7.152;2023-03-13T14:30:46;16.80;99.90
19544;DHT22;9917;51.256;7.152;2023-03-13T14:33:12;16.70;99.90
19544;DHT22;9917;51.256;7.152;2023-03-13T14:35:40;16.70;99.90
19544;DHT22;9917;51.256;7.152;2023-03-13T14:38:06;16.70;99.90
19544;DHT22;9917;51.256;7.152;2023-03-13T14:40:36;16.60;99.90
19544;DHT22;9917;51.256;7.152;2023-03-13T14:43:03;16.50;99.90
19544;DHT22;9917;51.256;7.152;2023-03-13T14:45:31;16.50;99.90
19544;DHT22;9917;51.256;7.152;2023-03-13T14:48:01;16.40;99.90
19544;DHT22;9917;51.256;7.152;2023-03-13T14:50:27;16.30;99.90
19544;DHT22;9917;51.256;7.152;2023-03-13T14:52:59;16.20;99.90
19544;DHT22;9917;51.256;7.152;2023-03-13T14:55:34;16.10;99.90
19544;DHT22;9917;51.256;7.152;2023-03-13T14:58:02;16.20;99.90
19544;DHT22;9917;51.256;7.152;2023-03-13T15:00:32;16.00;99.90
19544;DHT22;9917;51.256;7.152;2023-03-13T15:03:21;16.00;99.90
19544;DHT22;9917;51.256;7.152;2023-03-13T15:05:48;16.10;99.90
19544;DHT22;9917;51.256;7.152;2023-03-13T15:08:17;16.10;99.90
19544;DHT22;9917;51.256;7.152;2023-03-13T15:10:43;16.10;99.90
19544;DHT22;9917;51.256;7.152;2023-03-13T15:13:23;16.10;99.90
19544;DHT22;9917;51.256;7.152;2023-03-13T15:15:50;16.20;99.90
19544;DHT22;9917;51.256;7.152;2023-03-13T15:18:17;16.20;99.90
19544;DHT22;9917;51.256;7.152;2023-03-13T15:20:48;16.10;99.90
19544;DHT22;9917;51.256;7.152;2023-03-13T15:23:15;16.10;99.90
19544;DHT22;9917;51.256;7.152;2023-03-13T15:25:41;16.10;99.90
19544;DHT22;9917;51.256;7.152;2023-03-13T15:28:13;16.10;99.90
19544;DHT22;9917;51.256;7.152;2023-03-13T15:30:39;16.20;99.90
19544;DHT22;9917;51.256;7.152;2023-03-13T15:33:05;16.20;99.90
19544;DHT22;9917;51.256;7.152;2023-03-13T15:35:32;16.10;99.90
19544;DHT22;9917;51.256;7.152;2023-03-13T15:38:00;16.00;99.90
19544;DHT22;9917;51.256;7.152;2023-03-13T15:40:27;16.00;99.90
19544;DHT22;9917;51.256;7.152;2023-03-13T15:42:56;16.00;99.90
19544;DHT22;9917;51.256;7.152;2023-03-13T15:45:22;16.00;99.90
19544;DHT22;9917;51.256;7.152;2023-03-13T15:47:48;16.00;99.90
19544;DHT22;9917;51.256;7.152;2023-03-13T15:50:16;15.90;99.90
19544;DHT22;9917;51.256;7.152;2023-03-13T15:52:42;16.00;99.90
19544;DHT22;9917;51.256;7.152;2023-03-13T15:55:12;16.10;99.90
19544;DHT22;9917;51.256;7.152;2023-03-13T15:57:43;16.10;99.90
19544;DHT22;9917;51.256;7.152;2023-03-13T16:00:15;16.30;99.90
19544;DHT22;9917;51.256;7.152;2023-03-13T16:02:42;16.50;99.90
19544;DHT22;9917;51.256;7.152;2023-03-13T16:05:08;16.70;99.90
19544;DHT22;9917;51.256;7.152;2023-03-13T16:07:34;16.70;99.90
19544;DHT22;9917;51.256;7.152;2023-03-13T16:10:00;16.60;99.90
19544;DHT22;9917;51.256;7.152;2023-03-13T16:12:25;16.50;99.90
19544;DHT22;9917;51.256;7.152;2023-03-13T16:15:02;16.50;99.90
19544;DHT22;9917;51.256;7.152;2023-03-13T16:17:29;16.40;99.90